createdAt,value
2019-01-27T00:01:08.244Z,15.27
2019-01-27T00:03:35.425Z,14.23
2019-01-27T00:06:02.545Z,10.03
2019-01-27T00:08:29.625Z,13.10
2019-01-27T00:10:56.805Z,12.37
2019-01-27T00:13:24.407Z,11.13
2019-01-27T00:15:51.607Z,10.47
2019-01-27T00:18:19.105Z,11.63
2019-01-27T00:20:46.266Z,10.57
2019-01-27T00:23:13.370Z,9.40
2019-01-27T00:25:40.545Z,9.00
2019-01-27T00:28:07.705Z,9.67
2019-01-27T00:30:35.285Z,9.50
2019-01-27T00:33:02.466Z,10.03
2019-01-27T00:35:29.606Z,11.33
2019-01-27T00:37:56.687Z,10.67
2019-01-27T00:40:23.945Z,12.27
2019-01-27T00:42:51.105Z,13.10
2019-01-27T00:45:19.403Z,12.83
2019-01-27T00:47:46.545Z,10.43
2019-01-27T00:50:19.105Z,13.47
2019-01-27T00:52:46.346Z,9.70
2019-01-27T00:55:22.054Z,11.13
2019-01-27T00:57:49.113Z,11.33
2019-01-27T01:00:21.655Z,13.53
2019-01-27T01:02:48.934Z,12.20
2019-01-27T01:05:16.236Z,10.10
2019-01-27T01:07:43.820Z,10.57
2019-01-27T01:10:16.239Z,8.73
2019-01-27T01:12:43.420Z,8.17
2019-01-27T01:15:11.638Z,11.30
2019-01-27T01:17:39.119Z,8.50
2019-01-27T01:20:17.460Z,9.03
2019-01-27T01:22:46.098Z,9.83
2019-01-27T01:25:39.319Z,12.27
2019-01-27T01:28:06.439Z,14.00
2019-01-27T01:30:34.199Z,12.70
2019-01-27T01:33:01.621Z,12.97
2019-01-27T01:35:28.918Z,9.60
2019-01-27T01:37:56.038Z,12.13
2019-01-27T01:40:23.199Z,8.90
2019-01-27T01:42:50.299Z,8.50
2019-01-27T01:45:27.499Z,9.50
2019-01-27T01:47:54.821Z,9.63
2019-01-27T01:50:22.380Z,7.83
2019-01-27T01:52:50.162Z,7.07
2019-01-27T01:55:17.398Z,7.03
2019-01-27T01:57:44.479Z,5.10
2019-01-27T02:00:18.639Z,5.00
2019-01-27T02:02:45.798Z,4.97
2019-01-27T02:05:15.799Z,7.27
2019-01-27T02:08:02.785Z,5.40
2019-01-27T02:10:30.321Z,6.63
2019-01-27T02:12:57.439Z,8.27
2019-01-27T02:15:35.919Z,8.47
2019-01-27T02:18:03.538Z,9.30
2019-01-27T02:20:30.579Z,12.03
2019-01-27T02:22:57.861Z,7.97
2019-01-27T02:25:24.961Z,9.17
2019-01-27T02:27:52.019Z,8.97
2019-01-27T02:30:19.702Z,8.47
2019-01-27T02:32:46.743Z,8.57
2019-01-27T02:35:13.799Z,9.27
2019-01-27T02:37:40.902Z,9.33
2019-01-27T02:40:10.800Z,10.20
2019-01-27T02:42:37.961Z,8.87
2019-01-27T02:45:15.170Z,10.97
2019-01-27T02:47:42.181Z,10.60
2019-01-27T02:50:10.618Z,10.53
2019-01-27T02:52:38.078Z,9.87
2019-01-27T02:55:07.579Z,10.83
2019-01-27T02:57:34.722Z,13.07
2019-01-27T03:00:04.179Z,10.73
2019-01-27T03:02:31.279Z,7.83
2019-01-27T03:05:00.164Z,7.23
2019-01-27T03:07:29.063Z,6.87
2019-01-27T03:09:56.158Z,7.80
2019-01-27T03:12:23.262Z,7.50
2019-01-27T03:14:50.362Z,5.43
2019-01-27T03:17:19.291Z,6.83
2019-01-27T03:19:46.319Z,9.67
2019-01-27T03:22:13.499Z,11.13
2019-01-27T03:24:40.559Z,14.20
2019-01-27T03:27:07.678Z,9.80
2019-01-27T03:29:34.759Z,10.43
2019-01-27T03:32:01.910Z,11.97
2019-01-27T03:34:28.979Z,11.60
2019-01-27T03:36:56.118Z,11.13
2019-01-27T03:39:23.282Z,10.50
2019-01-27T03:41:50.399Z,9.70
2019-01-27T03:44:17.441Z,15.30
2019-01-27T03:46:44.521Z,16.03
2019-01-27T03:49:11.600Z,17.97
2019-01-27T03:51:38.640Z,16.37
2019-01-27T03:54:06.041Z,25.40
2019-01-27T03:56:33.118Z,20.97
2019-01-27T03:59:00.204Z,19.27
2019-01-27T04:01:27.361Z,20.40
2019-01-27T04:03:54.459Z,17.37
2019-01-27T04:06:21.539Z,11.07
2019-01-27T04:08:48.639Z,12.03
2019-01-27T04:11:16.062Z,16.27
2019-01-27T04:13:43.159Z,14.00
2019-01-27T04:16:10.559Z,15.60
2019-01-27T04:18:37.658Z,19.67
2019-01-27T04:21:04.883Z,16.83
2019-01-27T04:23:32.000Z,14.13
2019-01-27T04:25:59.059Z,16.17
2019-01-27T04:28:26.157Z,16.67
2019-01-27T04:30:53.582Z,17.37
2019-01-27T04:33:20.684Z,17.07
2019-01-27T04:35:48.239Z,14.07
2019-01-27T04:38:15.292Z,15.10
2019-01-27T04:40:42.399Z,17.30
2019-01-27T04:43:09.459Z,14.73
2019-01-27T04:45:37.939Z,14.93
2019-01-27T04:48:06.499Z,19.40
2019-01-27T04:50:33.581Z,16.67
2019-01-27T04:53:00.739Z,25.73
2019-01-27T04:55:27.860Z,16.03
2019-01-27T04:57:54.959Z,22.13
2019-01-27T05:00:27.264Z,18.77
2019-01-27T05:02:56.400Z,19.77
2019-01-27T05:05:23.459Z,25.93
2019-01-27T05:07:50.640Z,26.30
2019-01-27T05:10:17.681Z,31.43
2019-01-27T05:12:44.964Z,29.63
2019-01-27T05:15:17.618Z,28.73
2019-01-27T05:17:44.761Z,22.67
2019-01-27T05:20:11.959Z,29.10
2019-01-27T05:22:39.041Z,27.20
2019-01-27T05:25:11.093Z,25.17
2019-01-27T05:27:38.418Z,32.07
2019-01-27T05:30:10.998Z,29.47
2019-01-27T05:32:38.058Z,39.80
2019-01-27T05:35:06.099Z,42.17
2019-01-27T05:37:33.239Z,46.27
2019-01-27T05:40:00.422Z,189.57
2019-01-27T05:42:27.544Z,34.43
2019-01-27T05:44:54.658Z,356.40
2019-01-27T05:47:21.780Z,322.07
2019-01-27T05:49:48.842Z,186.23
2019-01-27T05:52:15.899Z,121.77
2019-01-27T05:54:43.019Z,36.20
2019-01-27T05:57:10.059Z,35.60
2019-01-27T05:59:37.119Z,29.73
2019-01-27T06:02:04.319Z,48.27
2019-01-27T06:04:31.399Z,46.20
2019-01-27T06:06:58.478Z,40.00
2019-01-27T06:09:26.659Z,48.70
2019-01-27T06:11:53.739Z,51.97
2019-01-27T06:14:20.819Z,84.33
2019-01-27T06:16:47.859Z,73.37
2019-01-27T06:19:15.298Z,72.50
2019-01-27T06:21:42.399Z,102.63
2019-01-27T06:24:09.718Z,83.07
2019-01-27T06:26:36.819Z,188.50
2019-01-27T06:29:03.919Z,75.03
2019-01-27T06:31:31.059Z,64.80
2019-01-27T06:33:58.179Z,166.97
2019-01-27T06:36:25.262Z,71.93
2019-01-27T06:38:52.377Z,270.40
2019-01-27T06:41:19.459Z,197.80
2019-01-27T06:43:46.474Z,147.03
2019-01-27T06:46:13.862Z,94.53
2019-01-27T06:48:41.179Z,229.80
2019-01-27T06:51:08.258Z,75.83
2019-01-27T06:53:35.479Z,72.37
2019-01-27T06:56:03.019Z,37.93
2019-01-27T06:58:31.899Z,41.20
2019-01-27T07:01:09.667Z,40.80
2019-01-27T07:03:38.537Z,36.60
2019-01-27T07:06:07.419Z,36.80
2019-01-27T07:08:45.057Z,31.73
2019-01-27T07:11:19.938Z,30.10
2019-01-27T07:14:05.224Z,28.47
2019-01-27T07:16:40.408Z,27.97
2019-01-27T07:19:25.940Z,36.30
2019-01-27T07:22:11.068Z,27.43
2019-01-27T07:24:39.937Z,26.20
2019-01-27T07:27:25.515Z,27.73
2019-01-27T07:29:59.987Z,28.30
2019-01-27T07:32:37.656Z,26.73
2019-01-27T07:35:28.496Z,23.17
2019-01-27T07:38:13.616Z,25.20
2019-01-27T07:40:48.556Z,24.63
2019-01-27T07:43:23.136Z,23.03
2019-01-27T07:45:52.016Z,25.23
2019-01-27T07:48:20.936Z,32.03
2019-01-27T07:50:52.616Z,25.47
2019-01-27T07:53:27.440Z,26.27
2019-01-27T07:56:12.795Z,25.30
2019-01-27T07:58:57.038Z,27.90
2019-01-27T08:01:28.778Z,26.57
2019-01-27T08:03:57.613Z,24.03
2019-01-27T08:06:32.378Z,20.17
2019-01-27T08:09:10.116Z,19.67
2019-01-27T08:11:56.917Z,19.00
2019-01-27T08:14:28.596Z,17.63
2019-01-27T08:17:06.736Z,18.97
2019-01-27T08:19:35.601Z,18.87
2019-01-27T08:22:04.481Z,16.57
2019-01-27T08:24:39.765Z,15.33
2019-01-27T08:27:20.456Z,14.53
2019-01-27T08:29:58.151Z,13.57
2019-01-27T08:32:30.087Z,14.37
2019-01-27T08:34:58.956Z,19.27
2019-01-27T08:37:27.889Z,16.93
2019-01-27T08:39:57.005Z,17.43
2019-01-27T08:42:31.927Z,15.80
2019-01-27T08:45:06.678Z,14.63
2019-01-27T08:47:33.817Z,14.47
2019-01-27T08:50:01.504Z,16.67
2019-01-27T08:52:28.890Z,14.67
2019-01-27T08:54:56.203Z,16.77
2019-01-27T08:57:23.303Z,16.60
2019-01-27T08:59:50.417Z,15.00
2019-01-27T09:02:22.541Z,20.57
2019-01-27T09:05:00.938Z,20.30
2019-01-27T09:07:32.399Z,19.90
2019-01-27T09:10:04.399Z,57.80
2019-01-27T09:12:33.269Z,38.90
2019-01-27T09:15:08.093Z,20.33
2019-01-27T09:17:37.040Z,14.77
2019-01-27T09:20:10.597Z,14.17
2019-01-27T09:22:51.504Z,15.03
2019-01-27T09:25:26.700Z,15.63
2019-01-27T09:28:01.435Z,13.50
2019-01-27T09:30:36.165Z,14.20
2019-01-27T09:33:05.995Z,13.50
2019-01-27T09:35:34.933Z,14.03
2019-01-27T09:38:20.198Z,14.77
2019-01-27T09:41:05.750Z,17.97
2019-01-27T09:43:34.635Z,23.57
2019-01-27T09:46:12.750Z,18.30
2019-01-27T09:48:41.950Z,18.77
2019-01-27T09:51:10.830Z,19.73
2019-01-27T09:53:54.536Z,25.80
2019-01-27T09:56:23.763Z,29.73
2019-01-27T09:58:52.622Z,26.07
2019-01-27T10:01:21.637Z,26.53
2019-01-27T10:03:50.593Z,33.17
2019-01-27T10:06:19.643Z,29.00
2019-01-27T10:08:48.622Z,33.83
2019-01-27T10:11:26.501Z,36.23
2019-01-27T10:13:54.123Z,33.10
2019-01-27T10:16:25.847Z,32.50
2019-01-27T10:19:09.744Z,29.07
2019-01-27T10:21:41.663Z,20.03
2019-01-27T10:24:10.602Z,25.20
2019-01-27T10:26:39.982Z,23.23
2019-01-27T10:29:08.822Z,15.03
2019-01-27T10:31:46.703Z,18.33
2019-01-27T10:34:15.562Z,15.17
2019-01-27T10:36:47.451Z,11.30
2019-01-27T10:39:34.142Z,12.63
2019-01-27T10:42:05.683Z,11.97
2019-01-27T10:44:34.614Z,13.37
2019-01-27T10:47:03.482Z,14.87
2019-01-27T10:49:50.283Z,17.43
2019-01-27T10:52:28.187Z,16.07
2019-01-27T10:54:57.123Z,15.47
2019-01-27T10:57:42.883Z,14.97
2019-01-27T11:00:19.701Z,12.00
2019-01-27T11:02:51.331Z,10.87
2019-01-27T11:05:20.730Z,10.00
2019-01-27T11:07:49.614Z,10.00
2019-01-27T11:10:18.499Z,9.90
2019-01-27T11:12:56.861Z,10.10
2019-01-27T11:15:42.787Z,9.73
2019-01-27T11:18:11.688Z,8.77
2019-01-27T11:20:46.379Z,9.77
2019-01-27T11:23:15.335Z,8.00
2019-01-27T11:25:47.007Z,8.43
2019-01-27T11:28:18.429Z,7.70
2019-01-27T11:30:53.187Z,8.50
2019-01-27T11:33:22.111Z,9.80
2019-01-27T11:35:54.049Z,8.07
2019-01-27T11:38:39.490Z,8.70
2019-01-27T11:41:11.167Z,8.80
2019-01-27T11:43:41.509Z,9.10
2019-01-27T11:46:10.425Z,9.83
2019-01-27T11:48:42.107Z,8.90
2019-01-27T11:51:10.989Z,8.00
2019-01-27T11:53:38.067Z,8.17
2019-01-27T11:56:05.210Z,7.67
2019-01-27T11:58:32.328Z,10.57
2019-01-27T12:01:00.267Z,7.03
2019-01-27T12:03:27.348Z,11.97
2019-01-27T12:05:54.652Z,8.80
2019-01-27T12:08:21.810Z,9.37
2019-01-27T12:10:48.888Z,9.70
2019-01-27T12:13:16.052Z,8.97
2019-01-27T12:15:43.108Z,7.40
2019-01-27T12:18:10.188Z,8.30
2019-01-27T12:20:37.228Z,8.63
2019-01-27T12:23:04.527Z,7.83
2019-01-27T12:25:31.968Z,9.50
2019-01-27T12:27:59.049Z,9.47
2019-01-27T12:30:26.247Z,8.07
2019-01-27T12:32:53.308Z,11.03
2019-01-27T12:35:20.370Z,9.20
2019-01-27T12:37:47.468Z,9.10
2019-01-27T12:40:18.690Z,6.73
2019-01-27T12:42:45.787Z,12.70
2019-01-27T12:45:15.487Z,10.30
2019-01-27T12:47:42.868Z,11.37
2019-01-27T12:50:16.768Z,14.43
2019-01-27T12:52:45.108Z,12.17
2019-01-27T12:55:13.708Z,10.87
2019-01-27T12:58:00.494Z,10.10
2019-01-27T13:00:38.609Z,11.97
2019-01-27T13:03:06.614Z,17.70
2019-01-27T13:05:33.822Z,12.03
2019-01-27T13:08:00.861Z,8.83
2019-01-27T13:10:28.097Z,10.10
2019-01-27T13:12:55.613Z,13.43
2019-01-27T13:15:22.673Z,12.13
2019-01-27T13:17:49.668Z,10.43
2019-01-27T13:20:16.812Z,10.93
2019-01-27T13:22:43.910Z,9.07
2019-01-27T13:25:16.550Z,13.07
2019-01-27T13:27:43.651Z,13.03
2019-01-27T13:30:25.730Z,11.43
2019-01-27T13:32:53.783Z,12.77
2019-01-27T13:35:21.873Z,11.13
2019-01-27T13:37:49.018Z,10.07
2019-01-27T13:40:21.509Z,14.23
2019-01-27T13:42:49.180Z,10.57
2019-01-27T13:45:27.742Z,9.23
2019-01-27T13:47:58.874Z,9.37
2019-01-27T13:50:24.244Z,9.77
2019-01-27T13:52:51.489Z,11.63
2019-01-27T13:55:25.929Z,10.77
2019-01-27T13:57:53.269Z,9.80
2019-01-27T14:00:33.698Z,9.40
2019-01-27T14:03:00.772Z,9.77
2019-01-27T14:05:27.913Z,11.20
2019-01-27T14:07:55.028Z,10.20
2019-01-27T14:10:27.570Z,10.13
2019-01-27T14:12:54.667Z,11.00
2019-01-27T14:15:26.428Z,11.33
2019-01-27T14:17:53.964Z,9.57
2019-01-27T14:20:20.995Z,13.37
2019-01-27T14:22:48.048Z,9.43
2019-01-27T14:25:18.324Z,7.90
2019-01-27T14:27:46.245Z,8.20
2019-01-27T14:30:23.029Z,9.33
2019-01-27T14:32:50.125Z,8.87
2019-01-27T14:35:17.585Z,8.20
2019-01-27T14:37:45.065Z,8.10
2019-01-27T14:40:22.708Z,8.17
2019-01-27T14:42:49.805Z,8.57
2019-01-27T14:45:22.848Z,10.70
2019-01-27T14:47:50.886Z,10.53
2019-01-27T14:50:27.846Z,8.23
2019-01-27T14:52:55.005Z,8.47
2019-01-27T14:55:22.105Z,8.47
2019-01-27T14:57:49.325Z,9.10
2019-01-27T15:00:23.846Z,8.83
2019-01-27T15:02:50.926Z,7.30
2019-01-27T15:05:18.107Z,7.97
2019-01-27T15:07:45.486Z,7.83
2019-01-27T15:10:19.787Z,10.73
2019-01-27T15:12:47.246Z,8.60
2019-01-27T15:15:18.194Z,9.40
2019-01-27T15:17:46.704Z,6.90
2019-01-27T15:20:24.805Z,10.33
2019-01-27T15:22:52.226Z,9.07
2019-01-27T15:25:19.353Z,9.40
2019-01-27T15:27:46.585Z,10.00
2019-01-27T15:30:27.927Z,8.53
2019-01-27T15:32:55.069Z,8.83
2019-01-27T15:35:22.144Z,8.57
2019-01-27T15:37:49.293Z,10.47
2019-01-27T15:40:16.767Z,8.20
2019-01-27T15:42:44.625Z,9.63
2019-01-27T15:45:25.647Z,8.93
2019-01-27T15:47:52.737Z,10.97
2019-01-27T15:50:33.369Z,10.77
2019-01-27T15:53:00.435Z,9.57
2019-01-27T15:55:27.903Z,8.83
2019-01-27T15:57:55.130Z,9.97
2019-01-27T16:00:29.170Z,10.73
2019-01-27T16:02:56.870Z,9.00
2019-01-27T16:05:24.462Z,9.83
2019-01-27T16:07:52.060Z,13.67
2019-01-27T16:10:25.393Z,12.03
2019-01-27T16:12:55.065Z,10.93
2019-01-27T16:15:27.266Z,11.03
2019-01-27T16:17:54.688Z,11.83
2019-01-27T16:20:22.246Z,12.00
2019-01-27T16:22:56.946Z,11.40
2019-01-27T16:25:24.006Z,12.97
2019-01-27T16:27:51.106Z,11.23
2019-01-27T16:30:20.246Z,10.27
2019-01-27T16:32:49.212Z,12.30
2019-01-27T16:35:16.785Z,12.43
2019-01-27T16:37:43.920Z,11.57
2019-01-27T16:40:13.780Z,10.93
2019-01-27T16:42:41.049Z,15.17
2019-01-27T16:45:13.051Z,13.07
2019-01-27T16:47:40.226Z,12.10
2019-01-27T16:50:12.680Z,10.47
2019-01-27T16:52:39.860Z,11.90
2019-01-27T16:55:12.253Z,12.77
2019-01-27T16:57:39.354Z,15.23
2019-01-27T17:00:26.514Z,12.83
2019-01-27T17:02:53.612Z,13.63
2019-01-27T17:05:20.785Z,13.60
2019-01-27T17:07:47.912Z,13.13
2019-01-27T17:10:25.071Z,11.43
2019-01-27T17:12:52.122Z,13.00
2019-01-27T17:15:19.582Z,12.50
2019-01-27T17:17:46.703Z,11.07
2019-01-27T17:20:17.781Z,10.73
2019-01-27T17:22:45.020Z,13.17
2019-01-27T17:25:12.520Z,12.10
2019-01-27T17:27:40.271Z,11.60
2019-01-27T17:30:20.356Z,11.77
2019-01-27T17:32:47.471Z,12.80
2019-01-27T17:35:15.391Z,12.53
2019-01-27T17:37:42.691Z,16.07
2019-01-27T17:40:14.452Z,13.47
2019-01-27T17:42:41.991Z,15.07
2019-01-27T17:45:18.570Z,13.90
2019-01-27T17:47:45.872Z,12.37
2019-01-27T17:50:18.455Z,16.87
2019-01-27T17:52:45.795Z,14.87
2019-01-27T17:55:38.855Z,13.37
2019-01-27T17:58:34.114Z,16.80
2019-01-27T18:01:15.433Z,14.13
2019-01-27T18:03:55.931Z,14.47
2019-01-27T18:06:33.314Z,13.27
2019-01-27T18:09:02.613Z,14.40
2019-01-27T18:11:34.371Z,17.23
2019-01-27T18:14:03.255Z,14.30
2019-01-27T18:16:30.353Z,15.07
2019-01-27T18:18:57.472Z,16.43
2019-01-27T18:21:24.592Z,15.33
2019-01-27T18:23:51.594Z,19.93
2019-01-27T18:26:18.630Z,16.70
2019-01-27T18:28:45.710Z,17.40
2019-01-27T18:31:12.840Z,16.30
2019-01-27T18:33:39.909Z,15.83
2019-01-27T18:36:07.264Z,15.80
2019-01-27T18:38:34.412Z,19.23
2019-01-27T18:41:01.432Z,16.67
2019-01-27T18:43:28.838Z,15.00
2019-01-27T18:45:56.077Z,17.57
2019-01-27T18:48:23.132Z,13.93
2019-01-27T18:50:50.251Z,14.73
2019-01-27T18:53:24.870Z,15.10
2019-01-27T18:55:56.830Z,15.83
2019-01-27T18:58:37.492Z,14.53
2019-01-27T19:01:17.490Z,14.87
2019-01-27T19:03:46.412Z,14.20
2019-01-27T19:06:31.750Z,13.17
2019-01-27T19:09:06.491Z,16.53
2019-01-27T19:11:41.491Z,16.60
2019-01-27T19:14:16.230Z,16.90
2019-01-27T19:16:59.990Z,15.03
2019-01-27T19:19:35.036Z,15.97
2019-01-27T19:22:10.171Z,16.53
2019-01-27T19:24:55.552Z,17.37
2019-01-27T19:27:33.551Z,18.73
2019-01-27T19:30:05.571Z,15.43
2019-01-27T19:32:37.475Z,19.10
2019-01-27T19:35:21.711Z,17.67
2019-01-27T19:38:02.830Z,17.63
2019-01-27T19:40:41.150Z,17.23
2019-01-27T19:43:10.092Z,19.60
2019-01-27T19:45:39.093Z,17.27
2019-01-27T19:48:10.750Z,19.37
2019-01-27T19:50:40.031Z,19.83
2019-01-27T19:53:17.951Z,19.57
2019-01-27T19:55:52.871Z,20.90
2019-01-27T19:58:27.511Z,18.73
2019-01-27T20:00:56.790Z,21.67
2019-01-27T20:03:28.346Z,21.57
2019-01-27T20:05:59.984Z,19.53
2019-01-27T20:08:35.044Z,18.80
2019-01-27T20:11:03.964Z,18.97
2019-01-27T20:13:33.203Z,17.23
2019-01-27T20:16:17.123Z,15.83
2019-01-27T20:18:46.003Z,18.63
2019-01-27T20:21:31.143Z,15.60
2019-01-27T20:24:12.103Z,16.23
2019-01-27T20:27:00.643Z,15.60
2019-01-27T20:29:29.543Z,17.60
2019-01-27T20:31:58.523Z,16.50
2019-01-27T20:34:39.744Z,16.40
2019-01-27T20:37:11.465Z,17.17
2019-01-27T20:39:43.125Z,15.17
2019-01-27T20:42:17.762Z,16.40
2019-01-27T20:45:01.983Z,16.30
2019-01-27T20:47:30.984Z,15.60
2019-01-27T20:49:59.983Z,15.20
2019-01-27T20:52:37.884Z,17.80
2019-01-27T20:55:26.063Z,20.93
2019-01-27T20:58:00.887Z,22.60
2019-01-27T21:00:39.243Z,21.50
2019-01-27T21:03:11.923Z,24.43
2019-01-27T21:05:56.203Z,20.93
2019-01-27T21:08:31.224Z,26.80
2019-01-27T21:11:12.184Z,24.40
2019-01-27T21:13:46.823Z,28.60
2019-01-27T21:16:22.002Z,26.77
2019-01-27T21:18:50.924Z,28.80
2019-01-27T21:21:18.203Z,28.53
2019-01-27T21:23:45.731Z,26.20
2019-01-27T21:26:12.883Z,30.33
2019-01-27T21:28:40.142Z,29.00
2019-01-27T21:31:07.323Z,29.57
2019-01-27T21:33:34.442Z,31.83
2019-01-27T21:36:01.963Z,27.77
2019-01-27T21:38:30.846Z,28.57
2019-01-27T21:40:57.923Z,28.03
2019-01-27T21:43:25.011Z,30.83
2019-01-27T21:45:52.216Z,29.57
2019-01-27T21:48:19.377Z,32.13
2019-01-27T21:50:46.558Z,29.20
2019-01-27T21:53:13.778Z,29.73
2019-01-27T21:55:40.919Z,30.43
2019-01-27T21:58:08.697Z,30.40
2019-01-27T22:00:36.357Z,31.20
2019-01-27T22:03:03.798Z,32.63
2019-01-27T22:05:30.978Z,32.27
2019-01-27T22:07:58.217Z,31.97
2019-01-27T22:10:25.661Z,32.33
2019-01-27T22:12:52.797Z,33.43
2019-01-27T22:15:20.398Z,33.07
2019-01-27T22:17:47.638Z,36.53
2019-01-27T22:20:15.480Z,33.90
2019-01-27T22:22:42.853Z,34.73
2019-01-27T22:25:12.717Z,36.47
2019-01-27T22:27:39.903Z,34.60
2019-01-27T22:30:11.984Z,33.83
2019-01-27T22:32:39.104Z,33.07
2019-01-27T22:35:06.663Z,38.53
2019-01-27T22:37:34.024Z,38.27
2019-01-27T22:40:01.344Z,36.70
2019-01-27T22:42:28.446Z,36.80
2019-01-27T22:44:55.548Z,38.03
2019-01-27T22:47:22.640Z,36.13
2019-01-27T22:49:49.746Z,34.43
2019-01-27T22:52:16.804Z,36.67
2019-01-27T22:54:43.890Z,34.30
2019-01-27T22:57:10.924Z,36.37
2019-01-27T22:59:38.044Z,35.57
2019-01-27T23:02:05.504Z,37.87
2019-01-27T23:04:32.565Z,35.43
2019-01-27T23:06:59.704Z,37.53
2019-01-27T23:09:27.084Z,38.27
2019-01-27T23:11:54.105Z,39.53
2019-01-27T23:14:21.203Z,39.30
2019-01-27T23:16:48.824Z,37.90
2019-01-27T23:19:15.904Z,34.90
2019-01-27T23:21:43.285Z,36.43
2019-01-27T23:24:10.385Z,36.23
2019-01-27T23:26:38.024Z,35.83
2019-01-27T23:29:05.164Z,43.50
2019-01-27T23:31:32.585Z,36.17
2019-01-27T23:33:59.784Z,39.93
2019-01-27T23:36:27.443Z,44.23
2019-01-27T23:38:54.583Z,42.30
2019-01-27T23:41:21.744Z,45.93
2019-01-27T23:43:48.984Z,44.53
2019-01-27T23:46:16.824Z,45.80
2019-01-27T23:48:43.883Z,48.93
2019-01-27T23:51:11.046Z,48.00
2019-01-27T23:53:38.104Z,49.93
2019-01-27T23:56:05.243Z,49.40
2019-01-27T23:58:32.384Z,50.93
